Time;durP1;ratioP1;P1;durP2;ratioP2;P2;SDS_P1;SDS_P2;PMS_P1;PMS_P2;Temp;Humidity;BMP_temperature;BMP_pressure;BME280_temperature;BME280_humidity;BME280_pressure;Samples;Min_cycle;Max_cycle;Signal;HPM_P1;HPM_P2
2022/07/15 00:01:58;;;;;;;6.50;1.80;;;13.10;99.90;;;;;;4971792;28;20056;-88
2022/07/15 00:04:24;;;;;;;5.70;2.30;;;13.10;99.90;;;;;;4970567;28;20055;-88
2022/07/15 00:06:49;;;;;;;4.97;1.90;;;13.10;99.90;;;;;;4954971;28;20054;-88
2022/07/15 00:09:15;;;;;;;6.63;2.05;;;13.10;99.90;;;;;;4955491;28;20057;-88
2022/07/15 00:11:41;;;;;;;5.10;1.92;;;13.10;99.90;;;;;;4956391;28;20121;-88
2022/07/15 00:14:06;;;;;;;7.10;1.98;;;13.10;99.90;;;;;;4973324;28;20065;-88
2022/07/15 00:16:32;;;;;;;8.85;1.95;;;13.10;99.90;;;;;;4957466;28;20141;-89
2022/07/15 00:18:58;;;;;;;4.72;1.60;;;13.20;99.90;;;;;;4973823;28;20047;-88
2022/07/15 00:21:23;;;;;;;4.82;1.85;;;13.20;99.90;;;;;;4973458;28;20351;-89
2022/07/15 00:23:50;;;;;;;6.28;1.70;;;13.10;99.90;;;;;;4957259;28;20112;-88
2022/07/15 00:26:15;;;;;;;7.80;1.90;;;13.10;99.90;;;;;;4956645;28;20058;-88
2022/07/15 00:28:41;;;;;;;5.70;1.98;;;13.10;99.90;;;;;;4973335;28;20054;-87
2022/07/15 00:31:06;;;;;;;5.40;1.85;;;13.10;99.90;;;;;;4977014;28;20054;-88
2022/07/15 00:33:32;;;;;;;5.05;1.60;;;13.10;99.90;;;;;;4962506;28;20047;-89
2022/07/15 00:35:58;;;;;;;6.90;2.13;;;13.10;99.90;;;;;;4963275;28;20053;-89
2022/07/15 00:38:23;;;;;;;8.55;1.75;;;13.10;99.90;;;;;;4977387;28;20080;-88
2022/07/15 00:40:49;;;;;;;7.70;1.50;;;13.10;99.90;;;;;;4960877;28;20047;-88
2022/07/15 00:43:16;;;;;;;5.95;2.03;;;13.10;99.90;;;;;;4959117;28;20440;-88
2022/07/15 00:45:42;;;;;;;4.25;1.90;;;13.10;99.90;;;;;;4973406;28;20116;-88
2022/07/15 00:48:08;;;;;;;6.20;1.67;;;13.10;99.90;;;;;;4973400;28;20050;-88
2022/07/15 00:50:33;;;;;;;7.07;1.67;;;13.00;99.90;;;;;;4973091;28;20150;-89
2022/07/15 00:53:07;;;;;;;4.72;1.70;;;13.00;99.90;;;;;;4958560;28;20078;-88
2022/07/15 00:55:42;;;;;;;4.53;1.70;;;13.00;99.90;;;;;;4959968;28;20096;-89
2022/07/15 00:58:10;;;;;;;7.90;1.70;;;13.00;99.90;;;;;;4941701;29;20495;-87
2022/07/15 01:00:36;;;;;;;6.47;1.90;;;13.00;99.90;;;;;;4952155;28;20081;-88
2022/07/15 01:03:01;;;;;;;7.32;2.33;;;13.00;99.90;;;;;;4975166;28;20042;-88
2022/07/15 01:05:27;;;;;;;4.53;1.67;;;13.10;99.90;;;;;;4956980;28;20051;-89
2022/07/15 01:07:53;;;;;;;10.43;1.90;;;13.10;99.90;;;;;;4957004;28;20124;-88
2022/07/15 01:10:23;;;;;;;6.03;2.45;;;13.10;99.90;;;;;;4956823;28;20047;-89
2022/07/15 01:12:49;;;;;;;5.85;1.95;;;13.10;99.90;;;;;;4956920;28;20050;-88
2022/07/15 01:15:15;;;;;;;6.95;2.40;;;13.10;99.90;;;;;;4971882;28;20407;-88
2022/07/15 01:17:41;;;;;;;6.35;2.13;;;13.10;99.90;;;;;;4956483;28;20053;-89
2022/07/15 01:20:07;;;;;;;6.78;1.65;;;13.20;99.90;;;;;;4972271;28;20049;-88
2022/07/15 01:22:33;;;;;;;3.53;1.83;;;13.20;99.90;;;;;;4940445;28;20046;-88
2022/07/15 01:24:59;;;;;;;9.95;1.77;;;13.20;99.90;;;;;;4956726;28;20050;-88
2022/07/15 01:27:25;;;;;;;4.45;1.60;;;13.20;99.90;;;;;;4956423;28;20182;-88
2022/07/15 01:29:51;;;;;;;8.15;1.80;;;13.20;99.90;;;;;;4956714;28;20043;-88
2022/07/15 01:32:17;;;;;;;9.45;1.83;;;13.20;99.90;;;;;;4956169;28;20415;-88
2022/07/15 01:34:43;;;;;;;5.03;1.90;;;13.10;99.90;;;;;;4956418;28;20479;-88
2022/07/15 01:37:08;;;;;;;8.80;1.80;;;13.10;99.90;;;;;;4972250;28;20053;-89
2022/07/15 01:39:34;;;;;;;8.65;2.20;;;13.10;99.90;;;;;;4971990;28;20035;-89
2022/07/15 01:41:59;;;;;;;7.28;1.75;;;13.00;99.90;;;;;;4972280;28;20062;-88
2022/07/15 01:44:25;;;;;;;8.82;1.75;;;12.90;99.90;;;;;;4939916;28;20035;-87
2022/07/15 01:46:51;;;;;;;4.65;1.85;;;12.90;99.90;;;;;;4972139;28;20047;-88
2022/07/15 01:49:22;;;;;;;8.80;1.92;;;12.90;99.90;;;;;;4956266;28;20047;-88
2022/07/15 01:51:53;;;;;;;6.25;1.50;;;12.80;99.90;;;;;;4972507;28;20042;-88
2022/07/15 01:54:19;;;;;;;3.15;1.50;;;12.80;99.90;;;;;;4972011;28;20636;-89
2022/07/15 01:56:45;;;;;;;10.82;1.98;;;12.70;99.90;;;;;;4971832;28;20081;-88
2022/07/15 01:59:10;;;;;;;5.30;1.85;;;12.70;99.90;;;;;;4956136;28;20538;-89
2022/07/15 02:01:36;;;;;;;7.63;1.80;;;12.70;99.90;;;;;;4939719;28;20129;-88
2022/07/15 02:04:02;;;;;;;6.78;2.10;;;12.70;99.90;;;;;;4972108;28;20063;-88
2022/07/15 02:06:28;;;;;;;6.30;2.17;;;12.70;99.90;;;;;;4955811;28;20038;-88
2022/07/15 02:08:54;;;;;;;5.68;1.77;;;12.70;99.90;;;;;;4956033;28;20058;-88
2022/07/15 02:11:20;;;;;;;7.20;2.35;;;12.70;99.90;;;;;;4955787;28;20471;-88
2022/07/15 02:13:45;;;;;;;4.53;1.85;;;12.70;99.90;;;;;;4955161;28;20081;-88
2022/07/15 02:16:11;;;;;;;5.78;1.80;;;12.70;99.90;;;;;;4955858;28;20054;-90
2022/07/15 02:18:37;;;;;;;6.03;1.80;;;12.70;99.90;;;;;;4939274;28;20054;-88
2022/07/15 02:21:03;;;;;;;4.25;1.92;;;12.70;99.90;;;;;;4939591;28;20050;-87
2022/07/15 02:23:29;;;;;;;5.22;1.70;;;12.80;99.90;;;;;;4954800;28;20097;-86
2022/07/15 02:25:54;;;;;;;2.63;1.45;;;12.80;99.90;;;;;;4952951;28;20124;-85
2022/07/15 02:28:20;;;;;;;5.13;1.58;;;12.80;99.90;;;;;;4968683;28;20498;-86
2022/07/15 02:30:46;;;;;;;4.03;1.67;;;12.80;99.90;;;;;;4956659;28;20049;-86
2022/07/15 02:33:13;;;;;;;6.35;1.80;;;12.70;99.90;;;;;;4957209;28;20107;-86
2022/07/15 02:35:39;;;;;;;10.10;2.00;;;12.70;99.90;;;;;;4972667;28;20057;-86
2022/07/15 02:38:05;;;;;;;6.35;1.80;;;12.60;99.90;;;;;;4955835;28;20042;-86
2022/07/15 02:40:30;;;;;;;6.95;1.45;;;12.60;99.90;;;;;;4952046;28;20137;-85
2022/07/15 02:42:58;;;;;;;4.68;1.60;;;12.60;99.90;;;;;;4968890;28;20390;-86
2022/07/15 02:45:24;;;;;;;6.38;2.20;;;12.50;99.90;;;;;;4968895;28;20552;-87
2022/07/15 02:47:50;;;;;;;5.07;1.60;;;12.40;99.90;;;;;;4938023;29;20066;-86
2022/07/15 02:50:16;;;;;;;6.97;1.85;;;12.40;99.90;;;;;;4976679;28;20058;-87
2022/07/15 02:52:42;;;;;;;5.68;1.67;;;12.30;99.90;;;;;;4966161;28;20193;-86
2022/07/15 02:55:08;;;;;;;7.18;1.85;;;12.20;99.90;;;;;;4972329;28;20457;-87
2022/07/15 02:57:34;;;;;;;9.40;1.83;;;12.20;99.90;;;;;;4940644;28;20054;-86
2022/07/15 03:00:00;;;;;;;3.90;1.70;;;12.10;99.90;;;;;;4953262;28;20189;-87
2022/07/15 03:02:26;;;;;;;6.05;2.05;;;12.00;99.90;;;;;;4968778;28;20051;-87
2022/07/15 03:04:52;;;;;;;5.25;2.10;;;12.60;99.90;;;;;;4959272;28;20057;-87
2022/07/15 03:07:18;;;;;;;11.45;2.15;;;11.90;99.90;;;;;;4951909;28;20055;-86
2022/07/15 03:09:43;;;;;;;5.53;1.80;;;11.90;99.90;;;;;;4971581;28;20047;-86
2022/07/15 03:12:09;;;;;;;4.97;1.75;;;11.90;99.90;;;;;;4955111;28;20086;-87
2022/07/15 03:14:35;;;;;;;6.85;1.88;;;11.80;99.90;;;;;;4958927;28;20055;-86
2022/07/15 03:17:00;;;;;;;8.57;2.10;;;11.80;99.90;;;;;;4968551;28;20129;-86
2022/07/15 03:19:26;;;;;;;7.38;2.08;;;11.80;99.90;;;;;;4970712;28;20443;-87
2022/07/15 03:21:51;;;;;;;6.32;1.80;;;11.80;99.90;;;;;;4970539;28;20046;-87
2022/07/15 03:24:17;;;;;;;8.90;2.28;;;11.80;99.90;;;;;;4955102;28;20066;-87
2022/07/15 03:26:43;;;;;;;5.75;1.95;;;11.70;99.90;;;;;;4970495;28;20178;-87
2022/07/15 03:29:09;;;;;;;4.75;2.00;;;11.70;99.90;;;;;;4970484;28;20042;-88
2022/07/15 03:31:35;;;;;;;9.50;2.30;;;11.70;99.90;;;;;;4954391;28;20059;-87
2022/07/15 03:34:00;;;;;;;4.45;1.80;;;11.60;99.90;;;;;;4954557;28;20051;-87
2022/07/15 03:36:26;;;;;;;6.90;1.95;;;11.60;99.90;;;;;;4954841;28;20057;-87
2022/07/15 03:38:52;;;;;;;7.07;2.25;;;11.60;99.90;;;;;;4954106;28;20182;-87
2022/07/15 03:41:18;;;;;;;5.97;1.95;;;11.60;99.90;;;;;;4935607;29;20082;-87
2022/07/15 03:43:44;;;;;;;4.40;2.22;;;11.60;99.90;;;;;;4967089;28;20047;-86
2022/07/15 03:46:09;;;;;;;6.18;1.92;;;11.70;99.90;;;;;;4974169;28;20061;-87
2022/07/15 03:48:35;;;;;;;8.88;2.25;;;11.70;99.90;;;;;;4957352;28;20093;-87
2022/07/15 03:51:01;;;;;;;7.05;1.95;;;11.70;99.90;;;;;;4958084;28;20153;-87
2022/07/15 03:53:26;;;;;;;5.07;1.90;;;11.80;99.90;;;;;;4958149;28;20054;-87
2022/07/15 03:55:52;;;;;;;10.45;2.17;;;11.80;99.90;;;;;;4973097;28;20125;-87
2022/07/15 03:58:18;;;;;;;8.40;1.95;;;11.80;99.90;;;;;;4958020;28;20155;-87
2022/07/15 04:00:43;;;;;;;9.07;2.05;;;11.80;99.90;;;;;;4957394;28;20047;-87
2022/07/15 04:03:09;;;;;;;7.75;2.05;;;11.80;99.90;;;;;;4973889;28;20404;-87
2022/07/15 04:05:34;;;;;;;8.82;1.75;;;11.80;99.90;;;;;;4957156;28;20054;-88
2022/07/15 04:08:00;;;;;;;4.47;1.88;;;12.90;99.90;;;;;;4944579;28;20042;-88
2022/07/15 04:10:26;;;;;;;5.53;1.98;;;11.80;99.90;;;;;;4957954;28;20086;-87
2022/07/15 04:12:51;;;;;;;6.32;2.20;;;11.80;99.90;;;;;;4958348;28;20058;-87
2022/07/15 04:15:17;;;;;;;3.75;1.67;;;11.80;99.90;;;;;;4973261;28;20058;-87
2022/07/15 04:17:43;;;;;;;3.88;2.00;;;11.90;99.90;;;;;;4939564;28;20059;-87
2022/07/15 04:20:09;;;;;;;7.55;2.35;;;11.90;99.90;;;;;;4973543;28;20039;-86
2022/07/15 04:22:44;;;;;;;8.18;1.90;;;12.00;99.90;;;;;;4957849;28;20054;-87
2022/07/15 04:25:11;;;;;;;6.65;2.00;;;12.00;99.90;;;;;;4957587;28;20125;-87
2022/07/15 04:27:37;;;;;;;5.40;2.22;;;12.10;99.90;;;;;;4957379;28;20383;-89
2022/07/15 04:30:05;;;;;;;5.65;2.35;;;12.20;99.90;;;;;;4973300;28;20057;-86
2022/07/15 04:32:31;;;;;;;6.07;2.10;;;12.30;99.90;;;;;;4973624;28;20101;-87
2022/07/15 04:34:56;;;;;;;4.05;1.60;;;12.30;99.90;;;;;;4956906;28;20043;-87
2022/07/15 04:37:22;;;;;;;5.25;1.67;;;12.40;99.90;;;;;;4973100;28;20046;-87
2022/07/15 04:39:48;;;;;;;7.78;1.65;;;12.40;99.90;;;;;;4974177;28;20058;-87
2022/07/15 04:42:13;;;;;;;4.47;1.70;;;12.50;99.90;;;;;;4957346;28;20055;-87
2022/07/15 04:44:39;;;;;;;4.40;1.42;;;12.50;99.90;;;;;;4973049;28;20097;-88
2022/07/15 04:47:05;;;;;;;6.55;1.85;;;12.60;99.90;;;;;;4956871;28;20057;-87
2022/07/15 04:52:15;;;;;;;5.55;1.58;;;12.70;99.90;;;;;;4973070;28;20058;-87
2022/07/15 04:54:41;;;;;;;5.50;1.70;;;12.80;99.90;;;;;;4972240;28;20074;-87
2022/07/15 04:57:06;;;;;;;4.95;1.92;;;12.80;99.90;;;;;;4972083;28;20596;-88
2022/07/15 04:59:32;;;;;;;5.13;1.83;;;12.90;99.90;;;;;;4972981;28;20125;-88
2022/07/15 05:01:58;;;;;;;5.15;1.60;;;12.90;99.90;;;;;;4972790;28;20088;-87
2022/07/15 05:04:24;;;;;;;6.30;1.50;;;13.00;99.90;;;;;;4941093;28;20058;-86
2022/07/15 05:06:50;;;;;;;3.45;1.63;;;13.10;99.90;;;;;;4956394;28;20047;-87
2022/07/15 05:09:15;;;;;;;3.20;1.52;;;13.50;99.90;;;;;;4956498;28;20051;-87
2022/07/15 05:11:41;;;;;;;4.47;1.63;;;14.10;99.90;;;;;;4956773;28;20092;-87
2022/07/15 05:14:07;;;;;;;3.92;1.35;;;15.10;99.90;;;;;;4972005;28;20130;-88
2022/07/15 05:16:32;;;;;;;4.65;1.42;;;15.90;99.90;;;;;;4972769;28;20125;-87
2022/07/15 05:18:58;;;;;;;4.97;1.30;;;16.50;99.90;;;;;;4972015;28;20050;-87
2022/07/15 05:21:24;;;;;;;5.03;1.23;;;16.50;99.90;;;;;;4972536;28;20106;-87
2022/07/15 05:23:49;;;;;;;5.90;1.50;;;16.40;99.90;;;;;;4972119;28;20053;-88
2022/07/15 05:26:15;;;;;;;3.83;1.25;;;16.00;99.90;;;;;;4972475;28;20051;-87
2022/07/15 05:28:41;;;;;;;4.38;1.30;;;15.70;99.90;;;;;;4972481;28;20039;-88
2022/07/15 05:31:06;;;;;;;3.38;1.10;;;15.30;99.90;;;;;;4956511;28;20438;-87
2022/07/15 05:33:32;;;;;;;2.90;1.70;;;15.10;99.90;;;;;;4956290;28;20055;-87
2022/07/15 05:35:58;;;;;;;3.83;1.20;;;14.90;99.90;;;;;;4971754;28;20110;-87
2022/07/15 05:38:24;;;;;;;3.70;1.33;;;14.80;99.90;;;;;;4972273;28;20046;-88
2022/07/15 05:40:50;;;;;;;4.45;1.10;;;14.70;99.90;;;;;;4971900;28;20454;-87
2022/07/15 05:43:16;;;;;;;3.33;1.27;;;14.60;99.90;;;;;;4956194;28;20642;-87
2022/07/15 05:45:41;;;;;;;5.35;1.40;;;14.50;99.90;;;;;;4956034;28;20058;-87
2022/07/15 05:48:07;;;;;;;3.63;1.10;;;14.50;99.90;;;;;;4955810;28;20142;-86
2022/07/15 05:50:33;;;;;;;4.10;1.05;;;14.40;99.90;;;;;;4971871;28;20075;-86
2022/07/15 05:52:59;;;;;;;5.28;1.40;;;14.40;99.90;;;;;;4971678;28;20075;-86
2022/07/15 05:55:25;;;;;;;4.55;1.10;;;14.40;99.90;;;;;;4955916;28;20050;-88
2022/07/15 05:57:50;;;;;;;3.17;0.93;;;14.50;99.90;;;;;;4955808;28;20399;-87
2022/07/15 06:00:16;;;;;;;1.85;0.90;;;14.50;99.90;;;;;;4972156;28;20047;-88
2022/07/15 06:02:42;;;;;;;3.58;1.00;;;14.60;99.90;;;;;;4971660;28;20059;-87
2022/07/15 06:05:08;;;;;;;2.03;0.98;;;14.60;99.90;;;;;;4955428;28;20051;-87
2022/07/15 06:07:35;;;;;;;3.08;0.98;;;14.70;99.90;;;;;;4955367;28;20061;-86
2022/07/15 06:10:01;;;;;;;5.32;0.95;;;14.80;99.90;;;;;;4971217;28;20487;-87
2022/07/15 06:12:26;;;;;;;3.67;1.00;;;15.00;99.90;;;;;;4955565;28;20053;-87
2022/07/15 06:14:52;;;;;;;2.22;0.63;;;15.10;99.90;;;;;;4970930;28;20593;-86
2022/07/15 06:17:18;;;;;;;3.22;1.00;;;15.30;99.90;;;;;;4955468;28;20134;-87
2022/07/15 06:19:43;;;;;;;2.85;0.70;;;15.50;99.90;;;;;;4954929;28;20126;-87
2022/07/15 06:22:09;;;;;;;2.42;0.75;;;15.70;99.90;;;;;;4972171;28;20058;-87
2022/07/15 06:24:35;;;;;;;1.83;0.70;;;16.00;99.90;;;;;;4955264;28;20110;-87
2022/07/15 06:27:00;;;;;;;4.50;0.80;;;16.30;99.90;;;;;;4954996;28;20125;-86
2022/07/15 06:29:26;;;;;;;1.85;0.70;;;17.10;99.90;;;;;;4971204;28;20057;-87
2022/07/15 06:31:52;;;;;;;2.40;0.75;;;17.20;99.90;;;;;;4970982;28;20090;-88
2022/07/15 06:34:17;;;;;;;4.50;0.65;;;17.20;99.90;;;;;;4970975;28;20098;-87
2022/07/15 06:36:43;;;;;;;3.95;0.70;;;17.00;99.90;;;;;;4972061;28;20376;-87
2022/07/15 06:39:08;;;;;;;3.60;0.70;;;17.20;99.90;;;;;;4955006;28;20558;-87
2022/07/15 06:41:34;;;;;;;4.50;0.77;;;17.10;99.90;;;;;;4955252;28;20065;-87
2022/07/15 06:44:01;;;;;;;3.08;0.70;;;17.30;99.90;;;;;;4970756;28;20047;-87
2022/07/15 06:46:27;;;;;;;2.50;0.55;;;17.30;99.90;;;;;;4955235;28;20058;-87
2022/07/15 06:48:53;;;;;;;2.20;0.60;;;17.40;99.90;;;;;;4955346;28;20051;-89
2022/07/15 06:51:19;;;;;;;2.17;0.70;;;17.60;99.90;;;;;;4971346;28;20391;-88
2022/07/15 06:53:44;;;;;;;2.10;0.60;;;17.80;99.90;;;;;;4971240;28;20498;-89
2022/07/15 06:56:10;;;;;;;3.65;0.80;;;18.60;99.90;;;;;;4954797;28;20046;-88
2022/07/15 06:58:35;;;;;;;2.20;0.65;;;18.70;99.90;;;;;;4955529;28;20097;-88
2022/07/15 07:01:01;;;;;;;1.42;0.50;;;18.40;99.90;;;;;;4954724;28;20046;-87
2022/07/15 07:03:27;;;;;;;3.25;0.70;;;18.50;99.90;;;;;;4954941;28;20059;-89
2022/07/15 07:05:53;;;;;;;3.00;1.02;;;18.00;99.90;;;;;;4954933;28;20097;-89
2022/07/15 07:08:18;;;;;;;2.60;0.60;;;17.70;99.90;;;;;;4955060;28;20121;-91
2022/07/15 07:10:44;;;;;;;3.72;0.70;;;17.40;99.90;;;;;;4955371;28;20073;-91
2022/07/15 07:13:09;;;;;;;2.45;0.63;;;17.50;99.90;;;;;;4970903;28;20070;-92
2022/07/15 07:15:35;;;;;;;3.22;0.60;;;17.40;99.90;;;;;;4962444;28;20050;-91
2022/07/15 07:18:02;;;;;;;2.92;1.10;;;17.90;99.90;;;;;;4970741;28;20054;-91
2022/07/15 07:20:28;;;;;;;2.25;0.75;;;18.40;99.90;;;;;;4973767;28;20038;-91
2022/07/15 07:22:54;;;;;;;3.30;0.90;;;18.80;99.90;;;;;;4975302;28;20046;-90
2022/07/15 07:25:19;;;;;;;1.13;0.60;;;18.80;99.90;;;;;;4971786;28;20482;-90
2022/07/15 07:27:45;;;;;;;2.97;0.68;;;19.80;99.90;;;;;;4976443;28;20047;-90
2022/07/15 07:30:11;;;;;;;2.22;0.60;;;19.60;99.90;;;;;;4958968;28;20125;-91
2022/07/15 07:32:37;;;;;;;3.25;0.80;;;19.90;99.90;;;;;;4976082;28;20121;-92
2022/07/15 07:35:03;;;;;;;3.65;0.73;;;20.30;99.90;;;;;;4976512;28;20065;-90
2022/07/15 07:37:33;;;;;;;4.32;0.88;;;20.40;99.90;;;;;;4974568;28;20038;-88
2022/07/15 07:39:59;;;;;;;2.15;0.68;;;20.20;99.90;;;;;;4975706;28;20042;-89
2022/07/15 07:42:25;;;;;;;2.72;0.80;;;20.60;99.90;;;;;;4973454;28;20052;-86
2022/07/15 07:44:50;;;;;;;3.60;0.80;;;21.00;99.90;;;;;;4989061;28;20054;-86
2022/07/15 07:47:16;;;;;;;2.35;0.70;;;21.80;99.90;;;;;;4989222;28;20049;-85
2022/07/15 07:49:42;;;;;;;2.25;0.55;;;22.60;99.90;;;;;;4992579;28;20050;-85
2022/07/15 07:52:07;;;;;;;4.43;0.55;;;22.80;99.90;;;;;;4990591;28;20046;-86
2022/07/15 07:54:33;;;;;;;0.90;0.30;;;23.40;99.90;;;;;;4975679;28;20065;-87
2022/07/15 07:56:59;;;;;;;3.45;0.50;;;24.00;99.90;;;;;;4974400;28;20081;-86
2022/07/15 07:59:25;;;;;;;3.45;0.50;;;23.00;99.90;;;;;;4973155;28;20086;-87
2022/07/15 08:01:51;;;;;;;2.35;0.60;;;22.20;99.90;;;;;;4975040;28;20093;-85
2022/07/15 08:04:17;;;;;;;1.92;0.50;;;21.00;99.90;;;;;;4974620;28;20109;-86
2022/07/15 08:06:43;;;;;;;0.73;0.40;;;20.80;99.90;;;;;;4991368;28;20080;-85
2022/07/15 08:09:08;;;;;;;1.15;0.40;;;20.90;99.90;;;;;;4979155;28;20047;-91
2022/07/15 08:11:34;;;;;;;2.95;0.68;;;21.60;99.90;;;;;;4958690;28;20046;-91
2022/07/15 08:14:00;;;;;;;1.50;0.57;;;22.10;99.90;;;;;;4972008;28;20062;-92
2022/07/15 08:16:25;;;;;;;2.22;0.57;;;22.30;99.90;;;;;;4966146;28;20088;-92
2022/07/15 08:18:53;;;;;;;0.50;0.30;;;22.10;99.90;;;;;;4973524;28;20514;-88
2022/07/15 08:21:18;;;;;;;1.65;0.57;;;21.70;99.90;;;;;;4959637;28;20038;-90
2022/07/15 08:23:44;;;;;;;3.20;0.88;;;21.20;99.90;;;;;;4959388;28;20085;-84
2022/07/15 08:26:11;;;;;;;2.90;0.65;;;20.60;99.90;;;;;;4981412;28;20375;-88
2022/07/15 08:28:36;;;;;;;1.98;0.60;;;20.00;99.90;;;;;;4972675;28;20050;-87
2022/07/15 08:31:02;;;;;;;0.40;0.30;;;19.70;99.90;;;;;;4988904;28;20057;-87
2022/07/15 08:33:28;;;;;;;0.95;0.65;;;18.90;99.90;;;;;;4956710;28;20767;-86
2022/07/15 08:35:55;;;;;;;0.93;0.40;;;18.40;99.90;;;;;;4972709;28;20479;-83
2022/07/15 08:38:20;;;;;;;1.42;0.60;;;17.90;99.90;;;;;;4972326;28;20093;-84
2022/07/15 08:40:46;;;;;;;5.10;0.70;;;17.90;99.90;;;;;;4956580;28;20454;-84
2022/07/15 08:43:12;;;;;;;4.63;0.82;;;18.00;99.90;;;;;;4956267;28;20057;-84
2022/07/15 08:45:39;;;;;;;2.75;0.60;;;17.80;99.90;;;;;;4972502;28;20122;-85
2022/07/15 08:48:06;;;;;;;0.75;0.50;;;18.00;99.90;;;;;;4972632;28;20054;-85
2022/07/15 08:50:32;;;;;;;3.55;0.80;;;18.20;99.90;;;;;;4972082;28;20061;-83
2022/07/15 08:52:58;;;;;;;1.50;1.00;;;18.40;99.90;;;;;;4972734;28;20122;-85
2022/07/15 08:55:23;;;;;;;1.17;1.05;;;18.40;99.90;;;;;;4939799;28;20126;-85
2022/07/15 08:57:50;;;;;;;0.40;0.40;;;18.80;99.90;;;;;;4955924;28;20055;-83
2022/07/15 09:00:16;;;;;;;3.63;0.70;;;18.90;99.90;;;;;;4985073;28;20488;-85
2022/07/15 09:02:42;;;;;;;0.70;0.60;;;18.90;99.90;;;;;;4970964;28;20050;-86
2022/07/15 09:05:30;;;;;;;2.00;0.90;;;18.90;99.90;;;;;;4972641;28;20057;-84
2022/07/15 09:08:14;;;;;;;3.17;0.73;;;18.50;99.90;;;;;;4972218;28;20081;-85
2022/07/15 09:10:53;;;;;;;3.95;0.50;;;18.40;99.90;;;;;;4972173;28;20478;-86
2022/07/15 09:13:31;;;;;;;1.88;0.43;;;18.20;99.90;;;;;;4972172;28;20043;-84
2022/07/15 09:16:10;;;;;;;1.08;0.40;;;17.90;99.90;;;;;;4973472;28;20501;-85
2022/07/15 09:18:43;;;;;;;0.95;0.40;;;17.90;99.90;;;;;;4969686;28;20159;-85
2022/07/15 09:21:24;;;;;;;1.33;0.50;;;18.00;99.90;;;;;;4955869;28;20279;-84
2022/07/15 09:23:50;;;;;;;2.00;0.70;;;17.90;99.90;;;;;;4940744;28;20062;-85
2022/07/15 09:26:29;;;;;;;2.55;0.60;;;17.90;99.90;;;;;;4929742;29;20098;-84
2022/07/15 09:28:55;;;;;;;3.22;0.60;;;18.00;99.90;;;;;;4927410;28;20047;-86
2022/07/15 09:34:11;;;;;;;2.53;0.75;;;18.50;99.90;;;;;;4956022;28;20042;-86
2022/07/15 09:36:37;;;;;;;1.27;0.80;;;19.10;99.90;;;;;;4939873;28;20054;-85
2022/07/15 09:39:04;;;;;;;0.75;0.45;;;19.50;99.90;;;;;;4939958;28;20042;-86
2022/07/15 09:41:37;;;;;;;1.45;0.70;;;19.90;99.90;;;;;;4938970;28;20049;-86
2022/07/15 09:44:07;;;;;;;0.63;0.57;;;20.20;99.90;;;;;;4939850;28;20047;-86
2022/07/15 09:46:57;;;;;;;1.63;0.40;;;19.90;99.90;;;;;;4955518;28;20046;-86
2022/07/15 09:49:22;;;;;;;2.10;0.50;;;20.10;99.90;;;;;;4955547;28;20097;-87
2022/07/15 09:52:06;;;;;;;5.13;0.60;;;20.30;99.90;;;;;;4955788;28;20055;-84
2022/07/15 09:54:37;;;;;;;2.80;0.60;;;20.50;99.90;;;;;;4934954;29;20057;-84
2022/07/15 09:57:07;;;;;;;2.92;0.57;;;20.30;99.90;;;;;;4937931;28;20406;-86
2022/07/15 09:59:32;;;;;;;0.77;0.40;;;20.00;99.90;;;;;;4939550;28;20051;-85
2022/07/15 10:01:59;;;;;;;1.25;0.40;;;20.00;99.90;;;;;;4972589;28;20121;-86
2022/07/15 10:04:26;;;;;;;1.63;0.50;;;19.90;99.90;;;;;;4939610;28;20090;-84
2022/07/15 10:06:53;;;;;;;0.77;0.50;;;19.80;99.90;;;;;;4955106;28;20077;-86
2022/07/15 10:09:22;;;;;;;0.98;0.50;;;19.70;99.90;;;;;;4939499;28;20502;-86
2022/07/15 10:11:49;;;;;;;0.82;0.30;;;19.70;99.90;;;;;;4939454;28;20090;-85
2022/07/15 10:14:37;;;;;;;1.23;0.70;;;20.00;99.90;;;;;;4939222;28;20066;-85
2022/07/15 10:17:21;;;;;;;2.58;0.50;;;20.10;99.90;;;;;;4955641;28;20066;-86
2022/07/15 10:20:01;;;;;;;1.70;0.50;;;20.40;99.90;;;;;;4968392;28;20120;-86
2022/07/15 10:22:35;;;;;;;3.92;0.85;;;20.30;99.90;;;;;;4954592;28;20551;-84
2022/07/15 10:25:33;;;;;;;1.30;0.50;;;20.30;99.90;;;;;;4955291;28;20072;-84
2022/07/15 10:28:10;;;;;;;1.25;0.50;;;20.60;99.90;;;;;;4955107;28;20117;-84
2022/07/15 10:30:39;;;;;;;1.85;0.47;;;21.30;99.90;;;;;;4970841;28;20051;-85
2022/07/15 10:33:17;;;;;;;0.95;0.60;;;21.80;99.90;;;;;;4971082;28;20050;-84
2022/07/15 10:35:51;;;;;;;0.47;0.47;;;22.10;99.90;;;;;;4938293;28;20058;-86
2022/07/15 10:38:32;;;;;;;;;;;22.50;99.90;;;;;;4955386;28;20117;-85
2022/07/15 10:41:11;;;;;;;2.33;0.40;;;23.00;99.90;;;;;;4970448;28;20004;-84
2022/07/15 10:43:53;;;;;;;2.15;0.50;;;23.30;99.90;;;;;;4970488;28;20054;-86
2022/07/15 10:46:21;;;;;;;2.58;0.50;;;24.00;99.90;;;;;;4971276;28;20399;-87
2022/07/15 10:48:49;;;;;;;0.68;0.40;;;22.80;99.90;;;;;;4954594;28;20058;-85
2022/07/15 10:51:37;;;;;;;2.50;0.80;;;22.20;99.90;;;;;;4970843;28;20082;-89
2022/07/15 10:54:04;;;;;;;0.60;0.43;;;22.70;99.90;;;;;;4969822;28;20043;-85
2022/07/15 10:56:30;;;;;;;0.82;0.30;;;22.40;99.90;;;;;;4954648;28;20045;-85
2022/07/15 10:59:15;;;;;;;1.05;0.47;;;22.00;99.90;;;;;;4954731;28;20054;-86
2022/07/15 11:01:45;;;;;;;0.47;0.30;;;22.40;99.90;;;;;;4954583;28;20620;-85
2022/07/15 11:04:23;;;;;;;0.95;0.40;;;23.00;99.90;;;;;;4938676;28;20094;-85
2022/07/15 11:07:07;;;;;;;2.83;0.50;;;23.00;99.90;;;;;;4970292;28;20085;-85
2022/07/15 11:09:54;;;;;;;2.38;0.50;;;22.80;99.90;;;;;;4970397;28;20051;-88
2022/07/15 11:12:32;;;;;;;1.38;0.40;;;22.80;99.90;;;;;;4970799;28;20086;-89
2022/07/15 11:15:11;;;;;;;0.93;0.50;;;22.50;99.90;;;;;;4969860;28;20082;-89
2022/07/15 11:17:38;;;;;;;0.82;0.50;;;22.00;99.90;;;;;;4954481;28;20093;-86
2022/07/15 11:20:11;;;;;;;1.05;0.43;;;21.40;99.90;;;;;;4955059;28;20042;-87
2022/07/15 11:22:49;;;;;;;2.20;0.60;;;20.90;99.90;;;;;;4938861;28;20046;-87
2022/07/15 11:25:38;;;;;;;1.63;0.43;;;20.50;99.90;;;;;;4956850;28;20050;-89
2022/07/15 11:28:06;;;;;;;1.05;0.55;;;20.20;99.90;;;;;;4986880;28;20376;-88
2022/07/15 11:30:35;;;;;;;1.00;0.70;;;20.00;99.90;;;;;;4970561;28;20086;-90
2022/07/15 11:33:01;;;;;;;2.05;0.40;;;19.80;99.90;;;;;;4962312;28;20055;-88
2022/07/15 11:35:30;;;;;;;0.93;0.70;;;19.70;99.90;;;;;;4960527;28;20459;-89
2022/07/15 11:38:01;;;;;;;1.95;0.60;;;19.60;99.90;;;;;;4970161;28;20053;-87
2022/07/15 11:46:01;;;;;;;0.55;0.50;;;19.50;99.90;;;;;;4967527;28;20062;-91
2022/07/15 11:48:26;;;;;;;1.40;0.60;;;19.50;99.90;;;;;;4971213;28;20061;-90
2022/07/15 11:50:54;;;;;;;0.95;0.70;;;19.60;99.90;;;;;;4987781;28;20088;-88
2022/07/15 11:53:19;;;;;;;3.28;0.75;;;19.60;99.90;;;;;;4969002;28;20104;-92
2022/07/15 11:55:58;;;;;;;1.48;0.50;;;19.80;99.90;;;;;;4971047;28;20034;-91
2022/07/15 11:58:29;;;;;;;3.58;1.10;;;20.00;99.90;;;;;;4973543;28;20051;-92
2022/07/15 12:00:54;;;;;;;0.90;0.50;;;20.30;99.90;;;;;;4978716;28;20051;-90
2022/07/15 12:03:20;;;;;;;1.95;0.55;;;20.60;99.90;;;;;;4971301;28;20045;-89
2022/07/15 12:06:02;;;;;;;2.70;0.60;;;20.70;99.90;;;;;;4986440;28;20052;-90
2022/07/15 12:08:55;;;;;;;0.63;0.52;;;21.10;99.90;;;;;;4975487;28;20050;-95
2022/07/15 12:11:22;;;;;;;0.95;0.50;;;21.30;99.90;;;;;;4974174;28;20085;-87
2022/07/15 12:14:01;;;;;;;0.50;0.50;;;21.40;99.90;;;;;;4976686;28;20050;-88
2022/07/15 12:16:31;;;;;;;2.72;0.68;;;21.20;99.90;;;;;;4960614;28;20089;-89
2022/07/15 12:19:07;;;;;;;0.50;0.50;;;21.20;99.90;;;;;;4972253;28;20045;-89
2022/07/15 12:21:33;;;;;;;0.82;0.43;;;21.50;99.90;;;;;;4976074;28;20050;-91
2022/07/15 12:24:08;;;;;;;1.00;0.57;;;21.50;99.90;;;;;;4975843;28;20077;-91
2022/07/15 12:26:40;;;;;;;6.00;0.63;;;21.70;99.90;;;;;;4940512;28;20051;-88
2022/07/15 12:29:08;;;;;;;2.03;0.43;;;22.30;99.90;;;;;;4960429;28;20564;-91
2022/07/15 12:31:34;;;;;;;2.85;0.70;;;22.70;99.90;;;;;;4975031;28;20046;-88
2022/07/15 12:34:00;;;;;;;1.08;0.45;;;22.40;99.90;;;;;;4971886;28;20042;-90
2022/07/15 12:36:32;;;;;;;1.35;0.38;;;22.60;99.90;;;;;;4990990;28;20038;-91
2022/07/15 12:39:18;;;;;;;1.85;0.45;;;22.80;99.90;;;;;;4971754;28;20053;-93
2022/07/15 12:41:44;;;;;;;1.63;0.50;;;21.80;99.90;;;;;;4958318;28;20130;-91
2022/07/15 12:44:10;;;;;;;3.20;1.27;;;22.00;99.90;;;;;;4974977;28;20104;-92
2022/07/15 12:46:49;;;;;;;2.00;0.40;;;21.80;99.90;;;;;;4962718;28;20046;-90
2022/07/15 12:49:40;;;;;;;2.83;0.32;;;21.60;99.90;;;;;;4968212;28;20485;-90
2022/07/15 12:52:38;;;;;;;0.85;0.50;;;21.40;99.90;;;;;;4995103;28;20334;-89
2022/07/15 12:55:18;;;;;;;0.80;0.55;;;21.30;99.90;;;;;;4981376;28;20031;-90
2022/07/15 12:57:44;;;;;;;0.80;0.50;;;21.30;99.90;;;;;;4975762;28;20049;-92
2022/07/15 13:00:22;;;;;;;0.77;0.60;;;21.30;99.90;;;;;;4962294;28;20059;-90
2022/07/15 13:02:57;;;;;;;0.50;0.43;;;21.00;99.90;;;;;;4981697;28;20055;-90
2022/07/15 13:05:23;;;;;;;0.73;0.40;;;21.20;99.90;;;;;;4975626;28;20054;-90